Flight Track Log - Related Links

Times and Time Zones

All times are in EST time to prevent confusion due to time zone crossing. See the EJA618 flight status page for this flight to view local times or setup timezone preferences in your user account.

Time Position Orientation Groundspeed Altitude Reporting Facility
EST Latitude Longitude Course Direction KTS MPH feet Rate Location/Type
Mon 10:59:55 AM 42.2767 -85.2622 169° South 200 230 2,900  Level Cleveland Center
Mon 11:01:04 AM 42.1947 -85.2400 169° South 244 281 7,100 3,323 Climbing Chicago Center
Mon 11:02:05 AM 42.1611 -85.1156 110° East 327 376 10,100 2,585 Climbing Chicago Center
Mon 11:03:07 AM 42.1528 -84.9864 95° East 342 394 12,400 2,323 Climbing Chicago Center
Mon 11:04:09 AM 42.1444 -84.8467 95° East 365 420 14,900 2,293 Climbing Chicago Center
Mon 11:05:10 AM 42.1350 -84.7031 95° East 380 437 17,100 1,951 Climbing Chicago Center
Mon 11:06:12 AM 42.1253 -84.5528 95° East 397 457 18,900 2,032 Climbing Chicago Center
Mon 11:07:14 AM 42.1136 -84.3625 95° East 422 486 21,300 2,067 Climbing Chicago Center
Mon 11:08:11 AM 42.1033 -84.2167 95° East 443 510 23,000 1,866 Climbing Cleveland Center
Mon 11:09:13 AM 42.0908 -84.0431 95° East 465 535 25,000 1,887 Climbing Cleveland Center
Mon 11:10:15 AM 42.0444 -83.8800 111° Southeast 472 543 26,900 2,032 Climbing Cleveland Center
Mon 11:11:17 AM 41.9731 -83.6964 118° Southeast 469 540 29,200 2,081 Climbing Cleveland Center
Mon 11:12:19 AM 41.9119 -83.5392 118° Southeast 469 540 31,200 1,790 Climbing Cleveland Center
Mon 11:13:21 AM 41.8533 -83.3906 118° Southeast 469 540 32,900 1,073 Climbing Cleveland Center
Mon 11:14:22 AM 41.7900 -83.2311 118° Southeast 486 559 33,400 976 Climbing Cleveland Center
Mon 11:15:24 AM 41.7261 -83.0692 118° Southeast 495 570 34,900 1,645 Climbing Cleveland Center
Mon 11:16:26 AM 41.6497 -82.8786 118° Southeast 489 563 36,800 1,500 Climbing Cleveland Center
Mon 11:17:28 AM 41.5931 -82.7378 118° Southeast 482 555 38,000 585 Climbing Cleveland Center
Mon 11:18:29 AM 41.5283 -82.5767 118° Southeast 486 559 38,000  Level Cleveland Center
Mon 11:19:31 AM 41.4525 -82.3925 119° Southeast 484 557 38,000 484 Level Cleveland Center
Mon 11:20:33 AM 41.3739 -82.2550 127° Southeast 468 539 39,000 927 Climbing Cleveland Center
Mon 11:21:34 AM 41.2836 -82.1306 134° Southeast 466 536 39,900 927 Climbing Cleveland Center
Mon 11:22:36 AM 41.1939 -82.0100 135° Southeast 467 537 40,900 532 Climbing Cleveland Center
Mon 11:23:38 AM 41.1019 -81.8831 134° Southeast 472 543 41,000 49 Climbing Cleveland Center
Mon 11:24:39 AM 41.0119 -81.7619 135° Southeast 464 534 41,000  Level Cleveland Center
Mon 11:25:41 AM 40.9242 -81.6433 134° Southeast 452 520 41,000  Level Cleveland Center
Mon 11:26:43 AM 40.8217 -81.5039 134° Southeast 452 520 41,000  Level Cleveland Center
Mon 11:27:44 AM 40.7514 -81.3578 122° Southeast 467 537 41,000  Level Cleveland Center
Mon 11:28:46 AM 40.6831 -81.2089 121° Southeast 471 542 41,000  Level Cleveland Center
Mon 11:29:48 AM 40.6133 -81.0603 122° Southeast 473 544 41,000  Level Cleveland Center
Mon 11:30:49 AM 40.5450 -80.9161 122° Southeast 474 545 41,000  Level Cleveland Center
Mon 11:31:51 AM 40.4764 -80.7706 122° Southeast 472 543 41,000  Level Cleveland Center
Mon 11:32:53 AM 40.4081 -80.6258 122° Southeast 471 542 41,000  Level Cleveland Center
Mon 11:33:54 AM 40.3253 -80.4528 122° Southeast 471 542 41,000  Level Cleveland Center
Mon 11:34:56 AM 40.2575 -80.3103 122° Southeast 472 543 41,000 -341 Level Cleveland Center
Mon 11:35:57 AM 40.1881 -80.1694 123° Southeast 472 543 40,300 -976 Descending Cleveland Center
Mon 11:36:59 AM 40.1175 -80.0250 123° Southeast 478 550 39,000 -1,258 Descending Cleveland Center
Mon 11:38:01 AM 40.0467 -79.8794 122° Southeast 479 551 37,700 -1,707 Descending Cleveland Center
Mon 11:39:02 AM 39.9631 -79.7100 123° Southeast 467 537 35,500 -2,244 Descending Cleveland Center
Mon 11:40:04 AM 39.8944 -79.5692 122° Southeast 463 533 33,100 -2,323 Descending Cleveland Center
Mon 11:41:06 AM 39.8247 -79.4300 123° Southeast 460 529 30,700 -2,341 Descending Cleveland Center
Mon 11:42:07 AM 39.7567 -79.2914 123° Southeast 457 526 28,300 -2,390 Descending Cleveland Center
Mon 11:43:09 AM 39.6861 -79.1494 123° Southeast 467 537 25,800 -2,081 Descending Cleveland Center
Mon 11:44:11 AM 39.6272 -78.9972 117° Southeast 477 549 24,000 -1,161 Descending Cleveland Center
Mon 11:45:13 AM 39.5878 -78.8172 106° East 466 536 23,400 -1,268 Descending Cleveland Center
Mon 11:46:14 AM 39.5550 -78.6522 104° East 470 541 21,400 -2,000 Descending Cleveland Center
Mon 11:47:16 AM 39.5211 -78.4914 105° East 465 535 19,300 -1,935 Descending Cleveland Center
Mon 11:48:18 AM 39.4914 -78.3447 105° East 426 490 17,400 -1,805 Descending Cleveland Center
Mon 11:49:19 AM 39.4603 -78.1997 105° East 419 482 15,600 -1,171 Descending Cleveland Center
Mon 11:50:21 AM 39.4294 -78.0569 106° East 413 475 15,000 -780 Descending Cleveland Center
Mon 11:51:22 AM 39.3944 -77.8892 105° East 406 467 14,000 -1,024 Descending Cleveland Center
Mon 11:52:24 AM 39.3800 -77.7481 97° East 400 460 12,900 -532 Descending Cleveland Center
Mon 11:53:26 AM 39.3717 -77.6083 94° East 391 450 12,900  Level Cleveland Center
Mon 11:54:27 AM 39.3631 -77.4686 95° East 389 448 12,900 50 Level Cleveland Center
Mon 11:55:26 AM 39.3531 -77.3281 95° East 391 450 13,000 50 Climbing Washington Center
Mon 11:56:27 AM 39.3467 -77.1911 93° East 386 444 13,000  Level Washington Center
Mon 11:57:28 AM 39.3361 -77.0514 96° East 386 444 13,000 -476 Level Washington Center
Mon 11:58:33 AM 39.2833 -76.9167 117° Southeast 369 425 12,000 -960 Descending Potomac TRACON
Mon 11:59:33 AM 39.2333 -76.8000 119° Southeast 375 432 11,000 -500 Descending Potomac TRACON
Mon 12:00:33 PM 39.1833 -76.7000 123° Southeast 330 380 11,000  Level Potomac TRACON
Mon 12:01:28 PM 39.1167 -76.5833 126° Southeast 353 406 11,000 -700 Level Potomac TRACON
Mon 12:02:33 PM 39.0500 -76.4833 131° Southeast 317 365 9,600 -1,750 Descending Potomac TRACON
Mon 12:03:28 PM 39.0000 -76.4000 128° Southeast 294 338 7,500 -2,296 Descending Potomac TRACON
Mon 12:04:28 PM 38.9500 -76.3167 128° Southeast 279 321 5,200 -2,000 Descending Potomac TRACON
Mon 12:05:28 PM 38.9000 -76.2667 142° Southeast 261 300 3,500 -1,550 Descending Potomac TRACON
Mon 12:06:28 PM 38.8333 -76.2167 150° Southeast 234 269 2,100 -750 Descending Potomac TRACON
Mon 12:07:28 PM 38.8000 -76.1833 142° Southeast 204 235 2,000 -368 Descending Potomac TRACON
Mon 12:08:22 PM 38.7667 -76.1333 131° Southeast 183 211 1,400 -632 Descending Potomac TRACON
Mon 12:09:22 PM 38.7833 -76.0833 67° East 151 174 800 -300 Descending Potomac TRACON
Mon 12:10:22 PM 38.7833 -76.0667 90° East 147 169 800  Level Potomac TRACON

Login

Don't have an account? Register now (free) for customized features, flight alerts, and more!